Meteorología y climatología de Navarra
Datos de la estación - Meteo Navarra

Estación de Yesa GN

Altitud 487 m.


Datos desde el 09/11/2018 hasta el 10/11/2018 en horario solar
Los datos son PROVISIONALES

Anterior Página 1 de 1 Siguiente Descargar: Formato para Excel 2000 o superior   Formato csv   Formato para OpenOffice Calc
Fecha Temperatura Humedad relativa Radiación global Insolación Precipitación Velocidad viento 10 m Velocidad viento 10 m Dirección viento 10 m
ºC % W/m² s l/m² m/s km/h º
09/11/2018 0:00 9.9 92 0.0 0 0.6 2.0 7.1 84
09/11/2018 0:10 9.1 90 0.0 0 1.8 3.7 13.5 310
09/11/2018 0:20 8.3 90 0.0 0 0.7 2.7 9.7 288
09/11/2018 0:30 8.2 91 0.0 0 0.9 1.3 4.8 280
09/11/2018 0:40 8.0 92 0.0 0 0.3 1.4 4.9 265
09/11/2018 0:50 8.0 93 0.0 0 0.4 1.4 5.1 292
09/11/2018 1:00 7.8 94 0.0 0 0.3 0.9 3.1 337
09/11/2018 1:10 7.8 94 0.0 0 0.6 1.2 4.4 40
09/11/2018 1:20 7.9 95 0.0 0 0.1 0.9 3.1 214
09/11/2018 1:30 7.8 95 0.0 0 0.0 0.7 2.4 1
09/11/2018 1:40 7.8 95 0.0 0 0.0 1.7 6.0 341
09/11/2018 1:50 7.7 95 0.0 0 0.0 1.9 6.9 304
09/11/2018 2:00 7.6 95 0.0 0 0.0 1.0 3.7 311
09/11/2018 2:10 7.6 95 0.0 0 0.0 1.4 5.1 300
09/11/2018 2:20 7.6 95 0.0 0 0.0 1.1 3.9 262
09/11/2018 2:30 7.6 95 0.0 0 0.0 1.5 5.5 298
09/11/2018 2:40 7.6 96 0.0 0 0.0 1.4 4.9 306
09/11/2018 2:50 7.6 96 0.0 0 0.0 1.5 5.4 310
09/11/2018 3:00 7.6 96 0.0 0 0.0 1.1 4.0 303
09/11/2018 3:10 7.5 96 0.0 0 0.0 0.7 2.5 321
09/11/2018 3:20 7.4 96 0.0 0 0.0 0.6 2.1 285
09/11/2018 3:30 7.4 96 0.0 0 0.0 1.3 4.6 303
09/11/2018 3:40 7.4 96 0.0 0 0.0 1.2 4.4 299
09/11/2018 3:50 7.5 96 0.0 0 0.0 2.2 7.7 297
09/11/2018 4:00 7.6 96 0.0 0 0.0 2.5 8.9 287
09/11/2018 4:10 7.6 95 0.0 0 0.0 2.5 9.0 291
09/11/2018 4:20 7.6 95 0.0 0 0.0 2.1 7.5 269
09/11/2018 4:30 7.7 94 0.0 0 0.0 2.0 7.1 284
09/11/2018 4:40 7.8 94 0.0 0 0.0 2.3 8.1 286
09/11/2018 4:50 7.8 93 0.0 0 0.0 3.0 10.9 296
09/11/2018 5:00 7.9 91 0.0 0 0.0 4.0 14.2 305
09/11/2018 5:10 8.0 90 0.0 0 0.0 3.7 13.4 307
09/11/2018 5:20 8.1 90 0.0 0 0.0 2.3 8.3 306
09/11/2018 5:30 8.2 89 0.0 0 0.0 2.7 9.6 297
09/11/2018 5:40 8.2 88 0.0 0 0.0 4.2 15.3 311
09/11/2018 5:50 8.4 87 0.0 0 0.0 3.0 10.7 293
09/11/2018 6:00 8.4 87 0.0 0 0.0 2.5 9.1 289
09/11/2018 6:10 8.3 86 0.0 0 0.0 3.4 12.1 299
09/11/2018 6:20 8.4 85 0.0 0 0.0 3.7 13.4 300
09/11/2018 6:30 8.4 86 0.0 0 0.0 2.6 9.5 300
09/11/2018 6:40 8.3 86 0.0 0 0.0 2.6 9.5 286
09/11/2018 6:50 8.5 85 0.0 0 0.0 4.0 14.5 302
09/11/2018 7:00 8.5 84 0.0 0 0.0 4.1 14.6 301
09/11/2018 7:10 8.9 79 0.0 0 0.0 5.4 19.3 298
09/11/2018 7:20 9.1 78 0.0 0 0.0 4.6 16.7 292
09/11/2018 7:30 9.0 78 3.2 0 0.0 4.6 16.5 304
09/11/2018 7:40 9.0 78 15.4 0 0.0 4.3 15.5 289
09/11/2018 7:50 9.2 76 22.9 0 0.0 4.4 15.8 296
09/11/2018 8:00 9.4 73 33.4 0 0.0 5.2 18.6 302
09/11/2018 8:10 9.5 73 46.7 0 0.0 4.1 14.8 277
09/11/2018 8:20 9.2 77 41.4 0 0.0 3.6 12.8 264
09/11/2018 8:30 8.7 82 43.4 0 0.0 2.4 8.6 258
09/11/2018 8:40 8.8 81 43.7 0 0.0 3.0 10.9 270
09/11/2018 8:50 8.6 83 60.3 0 0.0 3.0 10.6 281
09/11/2018 9:00 8.7 84 70.6 0 0.0 2.4 8.6 271
09/11/2018 9:10 9.0 81 101.5 10 0.0 2.3 8.1 270
09/11/2018 9:20 9.2 82 96.9 8 0.0 2.6 9.4 275
09/11/2018 9:30 9.2 81 74.5 0 0.0 2.4 8.7 281
09/11/2018 9:40 9.2 82 182.1 128 0.0 1.9 6.9 262
09/11/2018 9:50 9.9 79 292.5 386 0.0 3.0 10.8 276
09/11/2018 10:00 10.2 77 270.6 284 0.0 2.7 9.8 277
09/11/2018 10:10 10.2 77 206.9 136 0.0 2.2 8.1 281
09/11/2018 10:20 10.0 77 123.6 0 0.0 3.1 11.2 275
09/11/2018 10:30 10.0 77 107.3 0 0.0 2.4 8.6 282
09/11/2018 10:40 10.2 78 95.1 0 0.0 2.5 8.9 287
09/11/2018 10:50 10.0 76 83.0 0 0.0 3.2 11.4 275
09/11/2018 11:00 10.0 77 102.5 2 0.0 3.0 10.8 277
09/11/2018 11:10 10.1 77 249.4 166 0.0 2.5 9.1 258
09/11/2018 11:20 10.6 76 365.0 316 0.0 2.9 10.3 279
09/11/2018 11:30 10.7 75 535.0 530 0.0 3.2 11.4 289
09/11/2018 11:40 11.7 72 774.8 600 0.0 2.0 7.2 298
09/11/2018 11:50 12.0 71 702.7 590 0.0 3.0 10.7 292
09/11/2018 12:00 11.7 71 194.0 0 0.0 2.8 10.0 278
09/11/2018 12:10 11.2 73 304.0 202 0.0 2.5 9.0 294
09/11/2018 12:20 11.4 71 501.6 600 0.0 2.0 7.1 320
09/11/2018 12:30 11.8 70 219.6 108 0.0 1.8 6.5 309
09/11/2018 12:40 11.5 70 164.4 40 0.0 2.0 7.3 310
09/11/2018 12:50 11.6 70 395.4 422 0.0 1.4 4.9 282
09/11/2018 13:00 12.1 69 258.3 170 0.0 1.0 3.6 253
09/11/2018 13:10 12.2 67 335.8 504 0.0 1.6 5.6 285
09/11/2018 13:20 12.3 66 272.6 600 0.0 1.9 6.8 276
09/11/2018 13:30 12.0 66 406.9 600 0.0 3.5 12.6 267
09/11/2018 13:40 12.7 64 592.5 600 0.0 2.4 8.7 283
09/11/2018 13:50 12.7 63 402.1 514 0.0 2.9 10.6 278
09/11/2018 14:00 12.2 64 444.6 600 0.0 3.3 11.8 310
09/11/2018 14:10 12.2 64 420.1 600 0.0 3.0 10.7 304
09/11/2018 14:20 12.4 62 427.0 600 0.0 2.4 8.5 298
09/11/2018 14:30 12.5 63 369.7 600 0.0 2.1 7.6 286
09/11/2018 14:40 12.5 63 180.6 300 0.0 1.8 6.4 299
09/11/2018 14:50 12.2 63 234.7 600 0.0 1.9 6.9 285
09/11/2018 15:00 12.3 63 284.5 600 0.0 1.6 5.7 300
09/11/2018 15:10 12.4 63 242.5 600 0.0 1.4 5.2 279
09/11/2018 15:20 12.4 63 213.6 600 0.0 0.8 2.8 280
09/11/2018 15:30 12.4 62 180.9 600 0.0 0.9 3.3 214
09/11/2018 15:40 12.3 63 150.5 600 0.0 0.6 2.1 261
09/11/2018 15:50 12.1 64 39.6 34 0.0 0.6 2.2 305
09/11/2018 16:00 11.9 64 20.0 0 0.0 0.3 1.0 222
09/11/2018 16:10 11.6 67 7.6 0 0.0 0.2 0.9 165
09/11/2018 16:20 10.7 70 0.1 0 0.0 0.3 1.1 328
09/11/2018 16:30 9.8 73 0.0 0 0.0 0.5 1.9 329
09/11/2018 16:40 8.8 77 0.0 0 0.0 1.3 4.7 317
09/11/2018 16:50 8.4 80 0.0 0 0.0 0.7 2.4 304
09/11/2018 17:00 8.3 81 0.0 0 0.0 0.5 1.7 36
09/11/2018 17:10 7.6 83 0.0 0 0.0 0.9 3.3 80
09/11/2018 17:20 7.3 85 0.0 0 0.0 0.8 3.0 63
09/11/2018 17:30 7.0 85 0.0 0 0.0 0.6 2.2 60
09/11/2018 17:40 7.0 87 0.0 0 0.0 1.0 3.5 113
09/11/2018 17:50 7.1 87 0.0 0 0.0 0.9 3.4 108
09/11/2018 18:00 6.8 88 0.0 0 0.0 0.9 3.1 90
09/11/2018 18:10 7.1 89 0.0 0 0.0 1.0 3.5 109
09/11/2018 18:20 7.5 89 0.0 0 0.0 1.1 4.0 111
09/11/2018 18:30 7.9 88 0.0 0 0.0 1.0 3.5 119
09/11/2018 18:40 8.0 88 0.0 0 0.0 1.1 4.0 105
09/11/2018 18:50 8.0 88 0.0 0 0.0 1.7 6.3 110
09/11/2018 19:00 8.2 87 0.0 0 0.0 1.8 6.5 107
09/11/2018 19:10 8.1 87 0.0 0 0.0 3.0 10.7 106
09/11/2018 19:20 8.2 86 0.0 0 0.0 3.7 13.2 104
09/11/2018 19:30 8.2 85 0.0 0 0.0 3.6 12.8 106
09/11/2018 19:40 8.1 84 0.0 0 0.0 3.9 13.9 102
09/11/2018 19:50 8.1 85 0.0 0 0.0 3.4 12.3 95
09/11/2018 20:00 8.0 84 0.0 0 0.0 3.5 12.7 101
09/11/2018 20:10 8.0 83 0.0 0 0.0 3.8 13.6 97
09/11/2018 20:20 8.1 83 0.0 0 0.0 3.3 11.8 100
09/11/2018 20:30 8.1 83 0.0 0 0.0 3.5 12.5 99
09/11/2018 20:40 8.1 82 0.0 0 0.0 3.5 12.6 109
09/11/2018 20:50 8.1 83 0.0 0 0.0 3.4 12.1 107
09/11/2018 21:00 8.1 84 0.0 0 0.0 4.0 14.5 103
09/11/2018 21:10 8.0 84 0.0 0 0.0 3.7 13.4 105
09/11/2018 21:20 7.9 85 0.0 0 0.0 3.8 13.5 97
09/11/2018 21:30 7.8 85 0.0 0 0.0 3.7 13.2 102
09/11/2018 21:40 7.8 84 0.0 0 0.0 3.6 12.8 96
09/11/2018 21:50 7.7 83 0.0 0 0.0 2.9 10.4 90
09/11/2018 22:00 7.8 84 0.0 0 0.0 3.7 13.4 101
09/11/2018 22:10 7.9 83 0.0 0 0.0 3.2 11.3 90
09/11/2018 22:20 7.8 84 0.0 0 0.0 2.8 10.2 88
09/11/2018 22:30 7.7 84 0.0 0 0.0 3.5 12.5 79
09/11/2018 22:40 7.7 84 0.0 0 0.0 3.1 11.1 84
09/11/2018 22:50 7.7 84 0.0 0 0.0 3.1 11.0 92
09/11/2018 23:00 7.8 84 0.0 0 0.0 3.9 13.9 99
09/11/2018 23:10 7.8 84 0.0 0 0.0 3.6 13.1 98
09/11/2018 23:20 7.8 84 0.0 0 0.0 3.4 12.1 95
09/11/2018 23:30 7.8 84 0.0 0 0.0 2.6 9.3 80
09/11/2018 23:40 7.8 85 0.0 0 0.0 2.5 9.1 96
09/11/2018 23:50 7.8 85 0.0 0 0.0 2.9 10.6 89
Anterior Página 1 de 1 Siguiente

NOTA: Tipo de datos según el color:
   - Valores diarios o 10 minutos correctos
   - Valores diarios calculados a partir de un número de datos 10 minutos menor que 144 y mayor que 120, o de un número de datos semihorarios menor que 48 y mayor que 40 (caso de las estaciones de Riegos de Navarra y del MARM)
   - Valores diez minutos estimados


Contacto        Enlaces        Aviso legal